Řízení letového provozu České republiky
Letiste: LKTB Aktualizace: 16.12.2017 22:08:11  UTC
 METAR LKTB 16.12. 22:00 ...
METAR LKTB 162200Z VRB02KT 9999 BKN033 00/M02 Q1013 NOSIG RMK REG QNH 1008=
 TAF LKTB 16.12. 17:00 ...
TAF LKTB 161700Z 1618/1800 VRB02KT 9999 SCT036      TEMPO 1618/1800 BKN036      BECMG 1701/1703 31004KT      PROB30 TEMPO 1702/1706 5000 -SN BKN020=